sensor_id;sensor_type;location;lat;lon;timestamp;pressure;altitude;pressure_sealevel;temperature;humidity
5522;BME280;2783;48.730;8.006;2023-02-13T00:00:58;102012.19;;;4.49;100.00
5522;BME280;2783;48.730;8.006;2023-02-13T00:03:24;102007.78;;;4.48;100.00
5522;BME280;2783;48.730;8.006;2023-02-13T00:05:49;102007.75;;;4.46;100.00
5522;BME280;2783;48.730;8.006;2023-02-13T00:08:14;102005.97;;;4.45;100.00
5522;BME280;2783;48.730;8.006;2023-02-13T00:10:39;102012.94;;;4.43;100.00
5522;BME280;2783;48.730;8.006;2023-02-13T00:13:05;102007.66;;;4.43;100.00
5522;BME280;2783;48.730;8.006;2023-02-13T00:15:30;102006.03;;;4.48;100.00
5522;BME280;2783;48.730;8.006;2023-02-13T00:17:55;102002.63;;;4.52;100.00
5522;BME280;2783;48.730;8.006;2023-02-13T00:20:20;102000.84;;;4.51;100.00
5522;BME280;2783;48.730;8.006;2023-02-13T00:22:46;102003.47;;;4.50;100.00
5522;BME280;2783;48.730;8.006;2023-02-13T00:25:11;102011.22;;;4.45;100.00
5522;BME280;2783;48.730;8.006;2023-02-13T00:27:36;102007.59;;;4.40;100.00
5522;BME280;2783;48.730;8.006;2023-02-13T00:30:02;102012.78;;;4.37;100.00
5522;BME280;2783;48.730;8.006;2023-02-13T00:32:27;102004.84;;;4.36;100.00
5522;BME280;2783;48.730;8.006;2023-02-13T00:34:52;102006.53;;;4.32;100.00
5522;BME280;2783;48.730;8.006;2023-02-13T00:37:18;102017.88;;;4.30;100.00
5522;BME280;2783;48.730;8.006;2023-02-13T00:39:43;102014.28;;;4.26;100.00
5522;BME280;2783;48.730;8.006;2023-02-13T00:42:08;102009.75;;;4.21;100.00
5522;BME280;2783;48.730;8.006;2023-02-13T00:44:34;102015.78;;;4.15;100.00
5522;BME280;2783;48.730;8.006;2023-02-13T00:46:59;102013.81;;;4.08;100.00
5522;BME280;2783;48.730;8.006;2023-02-13T00:49:24;102021.66;;;4.05;100.00
5522;BME280;2783;48.730;8.006;2023-02-13T00:51:50;102021.47;;;3.99;100.00
5522;BME280;2783;48.730;8.006;2023-02-13T00:54:15;102021.41;;;3.96;100.00
5522;BME280;2783;48.730;8.006;2023-02-13T00:56:40;102025.72;;;3.94;100.00
5522;BME280;2783;48.730;8.006;2023-02-13T00:59:05;102027.47;;;3.92;100.00
5522;BME280;2783;48.730;8.006;2023-02-13T01:01:31;102025.56;;;3.88;100.00
5522;BME280;2783;48.730;8.006;2023-02-13T01:03:56;102033.44;;;3.86;100.00
5522;BME280;2783;48.730;8.006;2023-02-13T01:06:21;102037.81;;;3.86;100.00
5522;BME280;2783;48.730;8.006;2023-02-13T01:08:46;102033.38;;;3.83;100.00
5522;BME280;2783;48.730;8.006;2023-02-13T01:11:12;102040.28;;;3.80;100.00
5522;BME280;2783;48.730;8.006;2023-02-13T01:13:37;102042.84;;;3.77;100.00
5522;BME280;2783;48.730;8.006;2023-02-13T01:16:02;102042.75;;;3.74;100.00
5522;BME280;2783;48.730;8.006;2023-02-13T01:18:27;102041.78;;;3.70;100.00
5522;BME280;2783;48.730;8.006;2023-02-13T01:20:57;102046.06;;;3.67;100.00
5522;BME280;2783;48.730;8.006;2023-02-13T01:23:23;102045.88;;;3.61;100.00
5522;BME280;2783;48.730;8.006;2023-02-13T01:25:48;102049.31;;;3.58;100.00
5522;BME280;2783;48.730;8.006;2023-02-13T01:28:15;102054.47;;;3.54;100.00
5522;BME280;2783;48.730;8.006;2023-02-13T01:30:41;102050.13;;;3.56;100.00
5522;BME280;2783;48.730;8.006;2023-02-13T01:33:06;102047.41;;;3.53;100.00
5522;BME280;2783;48.730;8.006;2023-02-13T01:35:31;102043.75;;;3.48;100.00
5522;BME280;2783;48.730;8.006;2023-02-13T01:37:56;102040.91;;;3.40;100.00
5522;BME280;2783;48.730;8.006;2023-02-13T01:40:22;102055.63;;;3.34;100.00
5522;BME280;2783;48.730;8.006;2023-02-13T01:42:47;102041.41;;;3.27;100.00
5522;BME280;2783;48.730;8.006;2023-02-13T01:45:23;102040.34;;;3.21;100.00
5522;BME280;2783;48.730;8.006;2023-02-13T01:52:55;102044.44;;;3.11;100.00
5522;BME280;2783;48.730;8.006;2023-02-13T01:55:21;102042.53;;;3.06;100.00
5522;BME280;2783;48.730;8.006;2023-02-13T01:57:49;102050.41;;;3.06;100.00
5522;BME280;2783;48.730;8.006;2023-02-13T02:00:15;102044.19;;;3.04;100.00
5522;BME280;2783;48.730;8.006;2023-02-13T02:02:46;102042.34;;;3.00;100.00
5522;BME280;2783;48.730;8.006;2023-02-13T02:05:15;102048.34;;;2.96;100.00
5522;BME280;2783;48.730;8.006;2023-02-13T02:07:41;102042.06;;;2.91;100.00
5522;BME280;2783;48.730;8.006;2023-02-13T02:10:18;102042.75;;;2.85;100.00
5522;BME280;2783;48.730;8.006;2023-02-13T02:12:52;102042.66;;;2.82;100.00
5522;BME280;2783;48.730;8.006;2023-02-13T02:15:19;102047.91;;;2.82;100.00
5522;BME280;2783;48.730;8.006;2023-02-13T02:17:45;102051.31;;;2.78;100.00
5522;BME280;2783;48.730;8.006;2023-02-13T02:25:17;102042.47;;;2.76;100.00
5522;BME280;2783;48.730;8.006;2023-02-13T02:32:56;102043.09;;;2.67;100.00
5522;BME280;2783;48.730;8.006;2023-02-13T02:40:56;102035.66;;;2.54;100.00
5522;BME280;2783;48.730;8.006;2023-02-13T02:45:55;102035.44;;;2.47;100.00
5522;BME280;2783;48.730;8.006;2023-02-13T02:51:15;102039.72;;;2.45;100.00
5522;BME280;2783;48.730;8.006;2023-02-13T02:54:07;102039.63;;;2.42;100.00
5522;BME280;2783;48.730;8.006;2023-02-13T02:56:48;102041.28;;;2.38;100.00
5522;BME280;2783;48.730;8.006;2023-02-13T02:59:15;102047.25;;;2.34;100.00
5522;BME280;2783;48.730;8.006;2023-02-13T03:02:00;102041.13;;;2.34;100.00
5522;BME280;2783;48.730;8.006;2023-02-13T03:04:45;102045.63;;;2.38;100.00
5522;BME280;2783;48.730;8.006;2023-02-13T03:07:30;102049.16;;;2.38;100.00
5522;BME280;2783;48.730;8.006;2023-02-13T03:09:57;102047.47;;;2.40;100.00
5522;BME280;2783;48.730;8.006;2023-02-13T03:12:49;102051.81;;;2.40;100.00
5522;BME280;2783;48.730;8.006;2023-02-13T03:15:35;102055.34;;;2.40;100.00
5522;BME280;2783;48.730;8.006;2023-02-13T03:18:20;102050.91;;;2.39;100.00
5522;BME280;2783;48.730;8.006;2023-02-13T03:21:09;102050.81;;;2.36;100.00
5522;BME280;2783;48.730;8.006;2023-02-13T03:24:06;102052.44;;;2.33;100.00
5522;BME280;2783;48.730;8.006;2023-02-13T03:26:37;102058.56;;;2.32;100.00
5522;BME280;2783;48.730;8.006;2023-02-13T03:32:05;102066.16;;;2.24;100.00
5522;BME280;2783;48.730;8.006;2023-02-13T03:34:36;102061.63;;;2.19;100.00
5522;BME280;2783;48.730;8.006;2023-02-13T03:37:26;102069.31;;;2.14;100.00
5522;BME280;2783;48.730;8.006;2023-02-13T03:40:29;102076.22;;;2.11;100.00
5522;BME280;2783;48.730;8.006;2023-02-13T03:43:13;102078.75;;;2.09;100.00
5522;BME280;2783;48.730;8.006;2023-02-13T03:45:41;102070.88;;;2.09;100.00
5522;BME280;2783;48.730;8.006;2023-02-13T03:48:25;102078.00;;;2.12;100.00
5522;BME280;2783;48.730;8.006;2023-02-13T03:51:11;102082.44;;;2.14;100.00
5522;BME280;2783;48.730;8.006;2023-02-13T03:53:37;102080.75;;;2.16;100.00
5522;BME280;2783;48.730;8.006;2023-02-13T03:56:05;102078.25;;;2.19;100.00
5522;BME280;2783;48.730;8.006;2023-02-13T03:58:52;102081.88;;;2.23;100.00
5522;BME280;2783;48.730;8.006;2023-02-13T04:01:37;102078.47;;;2.25;100.00
5522;BME280;2783;48.730;8.006;2023-02-13T04:06:48;102085.69;;;2.32;100.00
5522;BME280;2783;48.730;8.006;2023-02-13T04:09:16;102089.25;;;2.34;100.00
5522;BME280;2783;48.730;8.006;2023-02-13T04:14:07;102092.13;;;2.40;100.00
5522;BME280;2783;48.730;8.006;2023-02-13T04:16:39;102087.91;;;2.45;100.00
5522;BME280;2783;48.730;8.006;2023-02-13T04:19:05;102090.66;;;2.50;100.00
5522;BME280;2783;48.730;8.006;2023-02-13T04:21:35;102098.69;;;2.54;100.00
5522;BME280;2783;48.730;8.006;2023-02-13T04:24:01;102101.50;;;2.60;100.00
5522;BME280;2783;48.730;8.006;2023-02-13T04:26:28;102105.94;;;2.61;100.00
5522;BME280;2783;48.730;8.006;2023-02-13T04:28:56;102103.50;;;2.67;100.00
5522;BME280;2783;48.730;8.006;2023-02-13T04:31:21;102097.59;;;2.75;100.00
5522;BME280;2783;48.730;8.006;2023-02-13T04:33:47;102096.03;;;2.80;100.00
5522;BME280;2783;48.730;8.006;2023-02-13T04:36:12;102098.97;;;2.90;100.00
5522;BME280;2783;48.730;8.006;2023-02-13T04:38:37;102096.69;;;3.01;100.00
5522;BME280;2783;48.730;8.006;2023-02-13T04:41:02;102086.47;;;3.10;100.00
5522;BME280;2783;48.730;8.006;2023-02-13T04:43:28;102086.69;;;3.17;100.00
5522;BME280;2783;48.730;8.006;2023-02-13T04:45:53;102088.63;;;3.23;100.00
5522;BME280;2783;48.730;8.006;2023-02-13T04:48:18;102096.03;;;3.36;100.00
5522;BME280;2783;48.730;8.006;2023-02-13T04:50:43;102096.34;;;3.48;100.00
5522;BME280;2783;48.730;8.006;2023-02-13T04:53:09;102095.81;;;3.59;100.00
5522;BME280;2783;48.730;8.006;2023-02-13T04:55:34;102096.09;;;3.68;100.00
5522;BME280;2783;48.730;8.006;2023-02-13T04:57:59;102091.03;;;3.76;100.00
5522;BME280;2783;48.730;8.006;2023-02-13T05:00:25;102091.25;;;3.83;100.00
5522;BME280;2783;48.730;8.006;2023-02-13T05:02:51;102092.31;;;3.90;100.00
5522;BME280;2783;48.730;8.006;2023-02-13T05:05:16;102098.69;;;3.98;100.00
5522;BME280;2783;48.730;8.006;2023-02-13T05:07:42;102094.47;;;4.04;100.00
5522;BME280;2783;48.730;8.006;2023-02-13T05:10:08;102090.22;;;4.10;100.00
5522;BME280;2783;48.730;8.006;2023-02-13T05:12:34;102095.53;;;4.11;100.00
5522;BME280;2783;48.730;8.006;2023-02-13T05:14:59;102096.53;;;4.16;100.00
5522;BME280;2783;48.730;8.006;2023-02-13T05:17:24;102092.19;;;4.17;100.00
5522;BME280;2783;48.730;8.006;2023-02-13T05:19:49;102095.81;;;4.22;100.00
5522;BME280;2783;48.730;8.006;2023-02-13T05:22:15;102097.69;;;4.27;100.00
5522;BME280;2783;48.730;8.006;2023-02-13T05:24:59;102089.13;;;4.34;100.00
5522;BME280;2783;48.730;8.006;2023-02-13T05:27:24;102090.06;;;4.36;100.00
5522;BME280;2783;48.730;8.006;2023-02-13T05:29:49;102083.00;;;4.37;100.00
5522;BME280;2783;48.730;8.006;2023-02-13T05:32:16;102090.13;;;4.39;100.00
5522;BME280;2783;48.730;8.006;2023-02-13T05:34:42;102084.94;;;4.42;100.00
5522;BME280;2783;48.730;8.006;2023-02-13T05:37:07;102089.25;;;4.40;100.00
5522;BME280;2783;48.730;8.006;2023-02-13T05:39:32;102086.75;;;4.45;100.00
5522;BME280;2783;48.730;8.006;2023-02-13T05:41:57;102083.22;;;4.44;100.00
5522;BME280;2783;48.730;8.006;2023-02-13T05:44:23;102085.00;;;4.45;100.00
5522;BME280;2783;48.730;8.006;2023-02-13T05:46:48;102085.13;;;4.50;100.00
5522;BME280;2783;48.730;8.006;2023-02-13T05:49:13;102088.63;;;4.50;100.00
5522;BME280;2783;48.730;8.006;2023-02-13T05:51:39;102095.53;;;4.45;100.00
5522;BME280;2783;48.730;8.006;2023-02-13T05:54:04;102093.81;;;4.46;100.00
5522;BME280;2783;48.730;8.006;2023-02-13T05:56:30;102091.97;;;4.43;100.00
5522;BME280;2783;48.730;8.006;2023-02-13T05:58:55;102102.69;;;4.49;100.00
5522;BME280;2783;48.730;8.006;2023-02-13T06:01:21;102099.25;;;4.53;100.00
5522;BME280;2783;48.730;8.006;2023-02-13T06:03:46;102098.34;;;4.51;100.00
5522;BME280;2783;48.730;8.006;2023-02-13T06:06:12;102098.31;;;4.50;100.00
5522;BME280;2783;48.730;8.006;2023-02-13T06:08:37;102098.34;;;4.51;100.00
5522;BME280;2783;48.730;8.006;2023-02-13T06:11:02;102096.75;;;4.58;100.00
5522;BME280;2783;48.730;8.006;2023-02-13T06:13:28;102095.84;;;4.57;100.00
5522;BME280;2783;48.730;8.006;2023-02-13T06:15:53;102099.34;;;4.56;100.00
5522;BME280;2783;48.730;8.006;2023-02-13T06:18:19;102091.56;;;4.61;100.00
5522;BME280;2783;48.730;8.006;2023-02-13T06:20:44;102094.22;;;4.62;100.00
5522;BME280;2783;48.730;8.006;2023-02-13T06:23:09;102093.38;;;4.65;100.00
5522;BME280;2783;48.730;8.006;2023-02-13T06:25:35;102097.81;;;4.66;100.00
5522;BME280;2783;48.730;8.006;2023-02-13T06:28:00;102097.84;;;4.67;100.00
5522;BME280;2783;48.730;8.006;2023-02-13T06:30:26;102094.34;;;4.68;100.00
5522;BME280;2783;48.730;8.006;2023-02-13T06:32:51;102102.31;;;4.70;100.00
5522;BME280;2783;48.730;8.006;2023-02-13T06:35:16;102107.56;;;4.70;100.00
5522;BME280;2783;48.730;8.006;2023-02-13T06:37:41;102103.13;;;4.67;100.00
5522;BME280;2783;48.730;8.006;2023-02-13T06:40:08;102112.75;;;4.65;100.00
5522;BME280;2783;48.730;8.006;2023-02-13T06:42:34;102111.00;;;4.66;100.00
5522;BME280;2783;48.730;8.006;2023-02-13T06:44:59;102114.44;;;4.63;100.00
5522;BME280;2783;48.730;8.006;2023-02-13T06:47:24;102118.06;;;4.68;100.00
5522;BME280;2783;48.730;8.006;2023-02-13T06:49:49;102116.34;;;4.69;100.00
5522;BME280;2783;48.730;8.006;2023-02-13T06:52:15;102126.06;;;4.71;100.00
5522;BME280;2783;48.730;8.006;2023-02-13T06:54:40;102119.00;;;4.70;100.00
5522;BME280;2783;48.730;8.006;2023-02-13T06:57:05;102133.19;;;4.75;100.00
5522;BME280;2783;48.730;8.006;2023-02-13T06:59:31;102127.94;;;4.75;100.00
5522;BME280;2783;48.730;8.006;2023-02-13T07:01:56;102131.47;;;4.76;100.00
5522;BME280;2783;48.730;8.006;2023-02-13T07:04:21;102139.50;;;4.82;100.00
5522;BME280;2783;48.730;8.006;2023-02-13T07:06:46;102132.59;;;4.87;100.00
5522;BME280;2783;48.730;8.006;2023-02-13T07:09:12;102136.97;;;4.86;100.00
5522;BME280;2783;48.730;8.006;2023-02-13T07:11:37;102132.56;;;4.85;100.00
5522;BME280;2783;48.730;8.006;2023-02-13T07:14:03;102135.22;;;4.85;100.00
5522;BME280;2783;48.730;8.006;2023-02-13T07:16:28;102137.72;;;4.79;100.00
5522;BME280;2783;48.730;8.006;2023-02-13T07:18:53;102140.59;;;4.90;100.00
5522;BME280;2783;48.730;8.006;2023-02-13T07:21:18;102145.75;;;4.85;100.00
5522;BME280;2783;48.730;8.006;2023-02-13T07:23:44;102147.44;;;4.83;100.00
5522;BME280;2783;48.730;8.006;2023-02-13T07:26:09;102153.69;;;4.87;100.00
5522;BME280;2783;48.730;8.006;2023-02-13T07:28:35;102152.03;;;4.90;100.00
5522;BME280;2783;48.730;8.006;2023-02-13T07:31:03;102162.47;;;4.86;100.00
5522;BME280;2783;48.730;8.006;2023-02-13T07:33:29;102157.00;;;4.78;100.00
5522;BME280;2783;48.730;8.006;2023-02-13T07:35:55;102160.63;;;4.83;100.00
5522;BME280;2783;48.730;8.006;2023-02-13T07:38:20;102157.25;;;4.87;100.00
5522;BME280;2783;48.730;8.006;2023-02-13T07:40:45;102164.19;;;4.84;100.00
5522;BME280;2783;48.730;8.006;2023-02-13T07:43:11;102167.63;;;4.83;100.00
5522;BME280;2783;48.730;8.006;2023-02-13T07:45:36;102166.84;;;4.85;100.00
5522;BME280;2783;48.730;8.006;2023-02-13T07:48:02;102177.88;;;4.69;100.00
5522;BME280;2783;48.730;8.006;2023-02-13T07:50:27;102186.47;;;4.62;100.00
5522;BME280;2783;48.730;8.006;2023-02-13T07:52:55;102180.75;;;4.46;100.00
5522;BME280;2783;48.730;8.006;2023-02-13T07:55:21;102181.47;;;4.40;100.00
5522;BME280;2783;48.730;8.006;2023-02-13T07:57:47;102172.00;;;4.48;100.00
5522;BME280;2783;48.730;8.006;2023-02-13T08:00:12;102176.59;;;4.55;100.00
5522;BME280;2783;48.730;8.006;2023-02-13T08:02:38;102175.06;;;4.63;100.00
5522;BME280;2783;48.730;8.006;2023-02-13T08:05:03;102177.63;;;4.60;100.00
5522;BME280;2783;48.730;8.006;2023-02-13T08:07:29;102172.59;;;4.69;100.00
5522;BME280;2783;48.730;8.006;2023-02-13T08:09:54;102178.69;;;4.68;100.00
5522;BME280;2783;48.730;8.006;2023-02-13T08:12:38;102176.53;;;4.52;100.00
5522;BME280;2783;48.730;8.006;2023-02-13T08:15:04;102174.66;;;4.48;100.00
5522;BME280;2783;48.730;8.006;2023-02-13T08:17:29;102183.47;;;4.49;100.00
5522;BME280;2783;48.730;8.006;2023-02-13T08:19:54;102181.47;;;4.40;100.00
5522;BME280;2783;48.730;8.006;2023-02-13T08:22:20;102183.28;;;4.41;100.00
5522;BME280;2783;48.730;8.006;2023-02-13T08:24:45;102180.09;;;4.54;100.00
5522;BME280;2783;48.730;8.006;2023-02-13T08:27:13;102177.63;;;4.60;100.00
5522;BME280;2783;48.730;8.006;2023-02-13T08:29:39;102173.28;;;4.62;100.00
5522;BME280;2783;48.730;8.006;2023-02-13T08:32:04;102182.91;;;4.62;100.00
5522;BME280;2783;48.730;8.006;2023-02-13T08:34:30;102175.13;;;4.66;100.00
5522;BME280;2783;48.730;8.006;2023-02-13T08:36:55;102179.53;;;4.66;100.00
5522;BME280;2783;48.730;8.006;2023-02-13T08:39:20;102179.53;;;4.66;100.00
5522;BME280;2783;48.730;8.006;2023-02-13T08:41:45;102175.56;;;4.49;100.00
5522;BME280;2783;48.730;8.006;2023-02-13T08:44:11;102170.94;;;4.40;100.00
5522;BME280;2783;48.730;8.006;2023-02-13T08:46:36;102174.94;;;4.59;100.00
5522;BME280;2783;48.730;8.006;2023-02-13T08:49:01;102171.66;;;4.67;100.00
5522;BME280;2783;48.730;8.006;2023-02-13T08:51:27;102180.19;;;4.57;100.00
5522;BME280;2783;48.730;8.006;2023-02-13T08:53:52;102173.38;;;4.67;100.00
5522;BME280;2783;48.730;8.006;2023-02-13T08:56:17;102177.06;;;4.73;100.00
5522;BME280;2783;48.730;8.006;2023-02-13T08:58:43;102182.53;;;4.79;100.00
5522;BME280;2783;48.730;8.006;2023-02-13T09:01:08;102172.19;;;4.88;100.00
5522;BME280;2783;48.730;8.006;2023-02-13T09:03:34;102166.13;;;4.91;100.00
5522;BME280;2783;48.730;8.006;2023-02-13T09:06:00;102159.94;;;4.90;100.00
5522;BME280;2783;48.730;8.006;2023-02-13T09:08:25;102166.00;;;4.88;100.00
5522;BME280;2783;48.730;8.006;2023-02-13T09:10:54;102168.84;;;4.95;100.00
5522;BME280;2783;48.730;8.006;2023-02-13T09:13:20;102170.06;;;5.09;100.00
5522;BME280;2783;48.730;8.006;2023-02-13T09:15:45;102170.09;;;5.11;100.00
5522;BME280;2783;48.730;8.006;2023-02-13T09:18:10;102170.88;;;5.05;100.00
5522;BME280;2783;48.730;8.006;2023-02-13T09:20:36;102162.09;;;5.06;100.00
5522;BME280;2783;48.730;8.006;2023-02-13T09:23:01;102166.75;;;5.18;100.00
5522;BME280;2783;48.730;8.006;2023-02-13T09:25:26;102169.56;;;5.25;100.00
5522;BME280;2783;48.730;8.006;2023-02-13T09:27:51;102165.34;;;5.32;100.00
5522;BME280;2783;48.730;8.006;2023-02-13T09:30:17;102163.84;;;5.45;100.00
5522;BME280;2783;48.730;8.006;2023-02-13T09:32:47;102166.66;;;5.52;100.00
5522;BME280;2783;48.730;8.006;2023-02-13T09:35:12;102171.28;;;5.62;100.00
5522;BME280;2783;48.730;8.006;2023-02-13T09:37:39;102167.88;;;5.68;100.00
5522;BME280;2783;48.730;8.006;2023-02-13T09:40:04;102169.03;;;5.80;100.00
5522;BME280;2783;48.730;8.006;2023-02-13T09:42:30;102173.66;;;5.89;100.00
5522;BME280;2783;48.730;8.006;2023-02-13T09:44:58;102181.56;;;5.89;100.00
5522;BME280;2783;48.730;8.006;2023-02-13T09:47:29;102174.69;;;5.97;100.00
5522;BME280;2783;48.730;8.006;2023-02-13T09:50:18;102181.78;;;5.98;100.00
5522;BME280;2783;48.730;8.006;2023-02-13T09:52:46;102181.78;;;5.98;100.00
5522;BME280;2783;48.730;8.006;2023-02-13T09:55:17;102174.78;;;6.01;100.00
5522;BME280;2783;48.730;8.006;2023-02-13T09:57:46;102183.59;;;6.02;100.00
5522;BME280;2783;48.730;8.006;2023-02-13T10:00:24;102172.13;;;6.01;100.00
5522;BME280;2783;48.730;8.006;2023-02-13T10:08:02;102185.03;;;5.85;100.00
5522;BME280;2783;48.730;8.006;2023-02-13T10:18:22;102192.41;;;6.01;100.00
5522;BME280;2783;48.730;8.006;2023-02-13T10:20:52;102197.00;;;6.11;100.00
5522;BME280;2783;48.730;8.006;2023-02-13T10:23:31;102186.63;;;6.20;100.00
5522;BME280;2783;48.730;8.006;2023-02-13T10:26:04;102193.78;;;5.84;100.00
5522;BME280;2783;48.730;8.006;2023-02-13T10:28:34;102185.19;;;5.94;100.00
5522;BME280;2783;48.730;8.006;2023-02-13T10:31:02;102186.47;;;6.12;100.00
5522;BME280;2783;48.730;8.006;2023-02-13T10:33:29;102180.50;;;6.22;100.00
5522;BME280;2783;48.730;8.006;2023-02-13T10:36:03;102185.16;;;6.34;100.00
5522;BME280;2783;48.730;8.006;2023-02-13T10:38:30;102186.22;;;6.45;100.00
5522;BME280;2783;48.730;8.006;2023-02-13T10:43:21;102181.22;;;6.60;100.00
5522;BME280;2783;48.730;8.006;2023-02-13T10:56:03;102174.59;;;6.83;99.37
5522;BME280;2783;48.730;8.006;2023-02-13T11:01:13;102173.69;;;6.83;99.06
5522;BME280;2783;48.730;8.006;2023-02-13T11:03:42;102177.19;;;6.82;98.52
5522;BME280;2783;48.730;8.006;2023-02-13T11:06:11;102171.94;;;6.83;98.54
5522;BME280;2783;48.730;8.006;2023-02-13T11:08:39;102177.97;;;6.76;98.88
5522;BME280;2783;48.730;8.006;2023-02-13T11:14:01;102167.44;;;6.79;99.34
5522;BME280;2783;48.730;8.006;2023-02-13T11:16:37;102168.84;;;6.59;99.28
5522;BME280;2783;48.730;8.006;2023-02-13T11:19:02;102166.50;;;6.76;99.99
5522;BME280;2783;48.730;8.006;2023-02-13T11:21:32;102156.03;;;6.82;99.59
5522;BME280;2783;48.730;8.006;2023-02-13T11:23:59;102165.78;;;6.84;98.43
5522;BME280;2783;48.730;8.006;2023-02-13T11:26:34;102162.19;;;6.82;99.80
5522;BME280;2783;48.730;8.006;2023-02-13T11:29:05;102155.31;;;6.90;99.34
5522;BME280;2783;48.730;8.006;2023-02-13T11:31:39;102153.69;;;7.00;99.64
5522;BME280;2783;48.730;8.006;2023-02-13T11:36:52;102156.44;;;7.06;99.71
5522;BME280;2783;48.730;8.006;2023-02-13T11:39:21;102153.97;;;7.16;99.73
5522;BME280;2783;48.730;8.006;2023-02-13T11:41:46;102157.56;;;7.21;99.13
5522;BME280;2783;48.730;8.006;2023-02-13T11:44:25;102145.13;;;7.17;99.02
5522;BME280;2783;48.730;8.006;2023-02-13T11:46:51;102150.31;;;7.08;98.94
5522;BME280;2783;48.730;8.006;2023-02-13T11:49:21;102142.47;;;7.16;98.21
5522;BME280;2783;48.730;8.006;2023-02-13T11:51:48;102143.75;;;7.42;97.80
5522;BME280;2783;48.730;8.006;2023-02-13T11:54:33;102141.31;;;7.57;98.16
5522;BME280;2783;48.730;8.006;2023-02-13T11:57:01;102143.72;;;7.40;96.76
5522;BME280;2783;48.730;8.006;2023-02-13T11:59:29;102143.91;;;7.52;96.74
5522;BME280;2783;48.730;8.006;2023-02-13T12:02:02;102142.25;;;7.60;97.29
5522;BME280;2783;48.730;8.006;2023-02-13T12:04:28;102140.53;;;7.65;97.29
5522;BME280;2783;48.730;8.006;2023-02-13T12:07:03;102142.41;;;7.72;97.24
5522;BME280;2783;48.730;8.006;2023-02-13T12:09:36;102136.22;;;7.72;95.99
5522;BME280;2783;48.730;8.006;2023-02-13T12:12:03;102147.63;;;7.69;95.48
5522;BME280;2783;48.730;8.006;2023-02-13T12:14:31;102143.22;;;7.67;95.65
5522;BME280;2783;48.730;8.006;2023-02-13T12:17:10;102145.94;;;7.74;95.06
5522;BME280;2783;48.730;8.006;2023-02-13T12:19:38;102138.00;;;7.74;95.28
5522;BME280;2783;48.730;8.006;2023-02-13T12:24:52;102134.75;;;7.96;93.84
5522;BME280;2783;48.730;8.006;2023-02-13T12:33:05;102127.94;;;8.18;92.13
5522;BME280;2783;48.730;8.006;2023-02-13T12:41:01;102121.75;;;8.21;91.65
5522;BME280;2783;48.730;8.006;2023-02-13T12:43:50;102114.78;;;8.26;91.61
5522;BME280;2783;48.730;8.006;2023-02-13T12:49:02;102109.63;;;8.41;91.04
5522;BME280;2783;48.730;8.006;2023-02-13T12:54:05;102112.88;;;8.16;90.16
5522;BME280;2783;48.730;8.006;2023-02-13T12:59:13;102116.59;;;8.28;90.05
5522;BME280;2783;48.730;8.006;2023-02-13T13:01:49;102114.00;;;8.37;89.79
5522;BME280;2783;48.730;8.006;2023-02-13T13:14:42;102115.22;;;8.71;88.75
5522;BME280;2783;48.730;8.006;2023-02-13T13:19:41;102118.00;;;8.86;87.35
5522;BME280;2783;48.730;8.006;2023-02-13T13:22:23;102118.81;;;8.76;87.00
5522;BME280;2783;48.730;8.006;2023-02-13T13:24:58;102124.09;;;8.73;87.46
5522;BME280;2783;48.730;8.006;2023-02-13T13:27:31;102122.34;;;8.78;87.87
5522;BME280;2783;48.730;8.006;2023-02-13T13:29:57;102111.75;;;8.78;87.44
5522;BME280;2783;48.730;8.006;2023-02-13T13:32:25;102114.19;;;8.58;86.97
5522;BME280;2783;48.730;8.006;2023-02-13T13:34:52;102108.00;;;8.55;87.51
5522;BME280;2783;48.730;8.006;2023-02-13T13:37:33;102105.13;;;8.34;87.12
5522;BME280;2783;48.730;8.006;2023-02-13T13:40:15;102100.84;;;8.43;87.69
5522;BME280;2783;48.730;8.006;2023-02-13T13:45:26;102099.94;;;8.43;87.48
5522;BME280;2783;48.730;8.006;2023-02-13T13:48:18;102102.34;;;8.22;87.92
5522;BME280;2783;48.730;8.006;2023-02-13T13:50:46;102094.38;;;8.19;89.45
5522;BME280;2783;48.730;8.006;2023-02-13T13:53:13;102095.25;;;8.21;88.81
5522;BME280;2783;48.730;8.006;2023-02-13T13:58:52;102080.44;;;8.36;89.67
5522;BME280;2783;48.730;8.006;2023-02-13T14:03:40;102082.34;;;8.54;88.83
5522;BME280;2783;48.730;8.006;2023-02-13T14:06:08;102077.94;;;8.53;89.03
5522;BME280;2783;48.730;8.006;2023-02-13T14:11:05;102079.75;;;8.60;87.96
5522;BME280;2783;48.730;8.006;2023-02-13T14:13:48;102083.22;;;8.50;87.45
5522;BME280;2783;48.730;8.006;2023-02-13T14:16:19;102076.25;;;8.64;87.96
5522;BME280;2783;48.730;8.006;2023-02-13T14:18:59;102076.34;;;8.77;88.24
5522;BME280;2783;48.730;8.006;2023-02-13T14:21:25;102073.03;;;9.05;88.14
5522;BME280;2783;48.730;8.006;2023-02-13T14:23:50;102066.00;;;9.18;87.08
5522;BME280;2783;48.730;8.006;2023-02-13T14:31:24;102059.78;;;9.16;86.02
5522;BME280;2783;48.730;8.006;2023-02-13T14:34:01;102056.22;;;9.11;85.72
5522;BME280;2783;48.730;8.006;2023-02-13T14:36:29;102058.03;;;9.13;85.63
5522;BME280;2783;48.730;8.006;2023-02-13T14:38:58;102066.88;;;9.12;85.42
5522;BME280;2783;48.730;8.006;2023-02-13T14:46:54;102047.16;;;8.76;84.46
5522;BME280;2783;48.730;8.006;2023-02-13T14:49:27;102051.47;;;8.62;84.80
5522;BME280;2783;48.730;8.006;2023-02-13T14:51:57;102040.81;;;8.57;85.22
5522;BME280;2783;48.730;8.006;2023-02-13T14:56:49;102038.72;;;8.19;86.82
5522;BME280;2783;48.730;8.006;2023-02-13T14:59:25;102035.94;;;8.08;88.05
5522;BME280;2783;48.730;8.006;2023-02-13T15:01:58;102042.06;;;8.02;88.21
5522;BME280;2783;48.730;8.006;2023-02-13T15:06:49;102033.13;;;7.91;90.38
5522;BME280;2783;48.730;8.006;2023-02-13T15:09:36;102036.72;;;7.96;90.74
5522;BME280;2783;48.730;8.006;2023-02-13T15:12:01;102031.41;;;7.96;91.19
5522;BME280;2783;48.730;8.006;2023-02-13T15:16:53;102027.78;;;7.87;91.62
5522;BME280;2783;48.730;8.006;2023-02-13T15:19:20;102025.16;;;7.88;91.81
5522;BME280;2783;48.730;8.006;2023-02-13T15:21:47;102027.78;;;7.87;91.20
5522;BME280;2783;48.730;8.006;2023-02-13T15:24:14;102025.97;;;7.83;91.73
5522;BME280;2783;48.730;8.006;2023-02-13T15:26:39;102025.03;;;7.81;91.88
5522;BME280;2783;48.730;8.006;2023-02-13T15:29:15;102017.06;;;7.76;91.63
5522;BME280;2783;48.730;8.006;2023-02-13T15:31:41;102014.34;;;7.70;92.19
5522;BME280;2783;48.730;8.006;2023-02-13T15:34:19;102025.72;;;7.59;92.96